Time;durP1;ratioP1;P1;durP2;ratioP2;P2;SDS_P1;SDS_P2;PMS_P1;PMS_P2;Temp;Humidity;BMP_temperature;BMP_pressure;BME280_temperature;BME280_humidity;BME280_pressure;Samples;Min_cycle;Max_cycle;Signal;HPM_P1;HPM_P2
2022/01/03 00:00:46;;;;;;;;;;;;;;;13.31;68.19;100699.72;1053151;28;866;-60
2022/01/03 00:01:39;;;;;;;;;;;;;;;13.32;67.98;100695.22;1053780;28;1175;-60
2022/01/03 00:02:29;;;;;;;;;;;;;;;13.31;67.69;100691.69;1058216;28;734;-60
2022/01/03 00:03:20;;;;;;;;;;;;;;;13.30;67.64;100687.28;1057701;28;697;-60
2022/01/03 00:04:10;;;;;;;;;;;;;;;13.29;67.71;100693.63;1058901;28;653;-59
2022/01/03 00:05:01;;;;;;;;;;;;;;;13.30;67.28;100695.31;1057663;28;910;-59
2022/01/03 00:05:51;;;;;;;;;;;;;;;13.31;67.73;100688.16;1053126;28;673;-59
2022/01/03 00:06:42;;;;;;;;;;;;;;;13.31;67.98;100696.19;1054285;28;871;-59
2022/01/03 00:07:32;;;;;;;;;;;;;;;13.31;68.05;100694.34;1058166;28;700;-60
2022/01/03 00:08:23;;;;;;;;;;;;;;;13.30;67.28;100684.63;1057564;28;669;-59
2022/01/03 00:09:13;;;;;;;;;;;;;;;13.29;67.18;100693.63;1057590;28;731;-60
2022/01/03 00:10:03;;;;;;;;;;;;;;;13.31;67.50;100696.19;1052719;28;732;-59
2022/01/03 00:10:54;;;;;;;;;;;;;;;13.29;67.80;100696.28;1053902;28;815;-59
2022/01/03 00:11:44;;;;;;;;;;;;;;;13.29;67.95;100688.25;1053506;28;692;-59
2022/01/03 00:12:35;;;;;;;;;;;;;;;13.29;67.06;100698.13;1054661;28;736;-59
2022/01/03 00:13:26;;;;;;;;;;;;;;;13.28;68.11;100694.59;1053149;28;791;-59
2022/01/03 00:14:16;;;;;;;;;;;;;;;13.27;68.15;100698.22;1054083;28;750;-59
2022/01/03 00:15:07;;;;;;;;;;;;;;;13.26;67.27;100691.19;1053473;28;818;-60
2022/01/03 00:15:57;;;;;;;;;;;;;;;13.26;68.07;100701.03;1053952;28;826;-59
2022/01/03 00:16:48;;;;;;;;;;;;;;;13.25;67.28;100692.19;1053462;28;656;-59
2022/01/03 00:17:38;;;;;;;;;;;;;;;13.25;67.73;100696.69;1054615;28;704;-60
2022/01/03 00:18:28;;;;;;;;;;;;;;;13.26;68.07;100701.88;1054730;28;708;-60
2022/01/03 00:19:19;;;;;;;;;;;;;;;13.27;67.43;100689.34;1054620;28;903;-59
2022/01/03 00:20:09;;;;;;;;;;;;;;;13.28;67.75;100701.75;1054653;28;672;-60
2022/01/03 00:21:00;;;;;;;;;;;;;;;13.27;67.98;100700.06;1055301;28;1623;-60
2022/01/03 00:21:50;;;;;;;;;;;;;;;13.27;67.96;100705.41;1057632;28;817;-60
2022/01/03 00:22:40;;;;;;;;;;;;;;;13.28;67.49;100699.09;1057709;28;707;-59
2022/01/03 00:23:31;;;;;;;;;;;;;;;13.27;67.50;100705.41;1057660;28;831;-59
2022/01/03 00:24:21;;;;;;;;;;;;;;;13.27;67.69;100711.63;1058258;28;687;-60
2022/01/03 00:25:15;;;;;;;;;;;;;;;13.27;67.37;100706.25;1057554;28;609;-59
2022/01/03 00:26:06;;;;;;;;;;;;;;;13.27;67.60;100703.59;1057584;28;640;-59
2022/01/03 00:26:56;;;;;;;;;;;;;;;13.27;67.13;100708.94;1057712;28;817;-59
2022/01/03 00:27:46;;;;;;;;;;;;;;;13.27;67.04;100708.94;1057428;28;1897;-59
2022/01/03 00:28:37;;;;;;;;;;;;;;;13.27;67.05;100702.72;1057798;28;735;-58
2022/01/03 00:29:27;;;;;;;;;;;;;;;13.28;67.61;100709.78;1057556;28;637;-59
2022/01/03 00:30:19;;;;;;;;;;;;;;;13.28;67.85;100707.13;1057711;28;773;-59
2022/01/03 00:31:09;;;;;;;;;;;;;;;13.29;67.69;100708.81;1057560;28;660;-59
2022/01/03 00:32:00;;;;;;;;;;;;;;;13.29;67.10;100709.69;1057621;28;910;-60
2022/01/03 00:32:51;;;;;;;;;;;;;;;13.29;67.07;100708.81;1058807;28;825;-59
2022/01/03 00:33:41;;;;;;;;;;;;;;;13.28;67.57;100704.44;1058066;28;749;-59
2022/01/03 00:34:32;;;;;;;;;;;;;;;13.27;67.09;100702.72;1057580;28;719;-59
2022/01/03 00:35:22;;;;;;;;;;;;;;;13.27;67.94;100700.91;1057682;28;661;-59
2022/01/03 00:36:13;;;;;;;;;;;;;;;13.26;67.31;100696.53;1057368;28;1097;-59
2022/01/03 00:37:03;;;;;;;;;;;;;;;13.26;67.68;100707.22;1057665;28;622;-59
2022/01/03 00:37:53;;;;;;;;;;;;;;;13.25;67.50;100708.25;1058818;28;754;-59
2022/01/03 00:38:44;;;;;;;;;;;;;;;13.25;67.97;100697.53;1057688;28;751;-59
2022/01/03 00:39:34;;;;;;;;;;;;;;;13.24;67.65;100708.34;1058248;28;657;-59
2022/01/03 00:40:25;;;;;;;;;;;;;;;13.24;68.12;100705.69;1057571;28;750;-59
2022/01/03 00:41:15;;;;;;;;;;;;;;;13.23;67.97;100699.47;1057658;28;959;-59
2022/01/03 00:42:05;;;;;;;;;;;;;;;13.23;67.30;100703.97;1057570;28;680;-59
2022/01/03 00:42:56;;;;;;;;;;;;;;;13.23;67.20;100699.47;1057636;28;723;-59
2022/01/03 00:43:46;;;;;;;;;;;;;;;13.23;67.45;100691.44;1058845;28;690;-59
2022/01/03 00:44:37;;;;;;;;;;;;;;;13.22;67.95;100703.13;1057536;28;733;-59
2022/01/03 00:45:27;;;;;;;;;;;;;;;13.24;67.17;100686.94;1057652;28;637;-59
2022/01/03 00:46:17;;;;;;;;;;;;;;;13.25;67.40;100689.50;1058779;28;743;-60
2022/01/03 00:47:08;;;;;;;;;;;;;;;13.24;67.63;100690.47;1057602;28;791;-59
2022/01/03 00:47:58;;;;;;;;;;;;;;;13.24;66.96;100698.50;1058776;28;1914;-59
2022/01/03 00:48:49;;;;;;;;;;;;;;;13.24;67.76;100690.47;1057522;28;1003;-59
2022/01/03 00:49:39;;;;;;;;;;;;;;;13.25;67.42;100686.81;1057751;28;621;-59
2022/01/03 00:50:30;;;;;;;;;;;;;;;13.26;67.73;100695.69;1057486;28;1397;-59
2022/01/03 00:51:20;;;;;;;;;;;;;;;13.25;67.95;100688.66;1057406;28;1345;-60
2022/01/03 00:52:11;;;;;;;;;;;;;;;13.24;68.09;100687.81;1057652;28;618;-59
2022/01/03 00:53:01;;;;;;;;;;;;;;;13.25;67.12;100689.50;1058628;28;868;-59
2022/01/03 00:53:52;;;;;;;;;;;;;;;13.24;67.41;100695.81;1058870;28;676;-59
2022/01/03 00:54:42;;;;;;;;;;;;;;;13.23;67.43;100683.41;1057654;28;945;-60
2022/01/03 00:55:33;;;;;;;;;;;;;;;13.24;67.00;100690.47;1057543;28;664;-59
2022/01/03 00:56:24;;;;;;;;;;;;;;;13.24;67.98;100692.31;1057677;28;641;-59
2022/01/03 00:57:17;;;;;;;;;;;;;;;13.23;67.84;100699.47;1057617;28;722;-59
2022/01/03 00:58:08;;;;;;;;;;;;;;;13.23;67.77;100694.13;1057554;28;668;-59
2022/01/03 00:58:59;;;;;;;;;;;;;;;13.24;67.27;100687.81;1057516;28;759;-59
2022/01/03 00:59:49;;;;;;;;;;;;;;;13.24;67.82;100694.97;1057751;28;757;-59
2022/01/03 01:00:40;;;;;;;;;;;;;;;13.24;67.10;100700.31;1057656;28;637;-59
2022/01/03 01:01:30;;;;;;;;;;;;;;;13.24;67.76;100703.00;1058127;28;664;-59
2022/01/03 01:02:21;;;;;;;;;;;;;;;13.23;67.14;100699.47;1057688;28;692;-59
2022/01/03 01:03:12;;;;;;;;;;;;;;;13.24;66.89;100703.84;1057547;28;738;-59
2022/01/03 01:04:03;;;;;;;;;;;;;;;13.24;66.92;100705.69;1057527;28;649;-58
2022/01/03 01:04:53;;;;;;;;;;;;;;;13.22;67.12;100703.13;1057625;28;609;-59
2022/01/03 01:05:43;;;;;;;;;;;;;;;13.22;67.09;100702.25;1057499;28;643;-58
2022/01/03 01:06:34;;;;;;;;;;;;;;;13.20;67.39;100699.72;1058657;28;1030;-59
2022/01/03 01:07:24;;;;;;;;;;;;;;;13.19;67.46;100708.69;1057372;28;744;-59
2022/01/03 01:08:15;;;;;;;;;;;;;;;13.20;67.37;100713.09;1057522;28;1886;-59
2022/01/03 01:09:05;;;;;;;;;;;;;;;13.18;67.68;100697.16;1057619;28;754;-59
2022/01/03 01:09:56;;;;;;;;;;;;;;;13.17;67.28;100695.44;1057441;28;625;-59
2022/01/03 01:10:46;;;;;;;;;;;;;;;13.18;66.91;100712.34;1057545;28;650;-59
2022/01/03 01:11:36;;;;;;;;;;;;;;;13.18;67.43;100709.69;1059488;27;967;-59
2022/01/03 01:12:27;;;;;;;;;;;;;;;13.19;67.64;100709.56;1058504;28;712;-59
2022/01/03 01:13:17;;;;;;;;;;;;;;;13.21;67.70;100709.44;1058474;28;674;-60
2022/01/03 01:14:08;;;;;;;;;;;;;;;13.21;67.36;100712.13;1058207;28;659;-59
2022/01/03 01:14:58;;;;;;;;;;;;;;;13.20;67.68;100708.59;1058295;28;656;-59
2022/01/03 01:15:49;;;;;;;;;;;;;;;13.20;66.92;100713.09;1058806;28;831;-59
2022/01/03 01:16:39;;;;;;;;;;;;;;;13.17;66.95;100710.66;1058392;28;657;-59
2022/01/03 01:17:29;;;;;;;;;;;;;;;13.17;67.27;100705.28;1058297;28;797;-60
2022/01/03 01:18:20;;;;;;;;;;;;;;;13.17;67.57;100697.25;1058306;28;672;-59
2022/01/03 01:19:10;;;;;;;;;;;;;;;13.17;67.87;100700.78;1058861;28;675;-59
2022/01/03 01:20:01;;;;;;;;;;;;;;;13.19;66.81;100708.69;1058262;28;900;-59
2022/01/03 01:20:51;;;;;;;;;;;;;;;13.19;67.50;100706.03;1058192;28;785;-60
2022/01/03 01:21:41;;;;;;;;;;;;;;;13.18;67.39;100697.16;1050093;28;810;-59
2022/01/03 01:22:32;;;;;;;;;;;;;;;13.17;67.69;100700.78;1050208;28;745;-59
2022/01/03 01:23:23;;;;;;;;;;;;;;;13.17;67.29;100702.63;1054012;28;721;-59
2022/01/03 01:24:13;;;;;;;;;;;;;;;13.17;67.04;100697.25;1049551;28;749;-59
2022/01/03 01:25:25;;;;;;;;;;;;;;;13.16;67.25;100700.91;1050356;28;654;-59
2022/01/03 01:28:33;;;;;;;;;;;;;;;13.15;67.15;100702.72;1054388;28;685;-60
2022/01/03 01:29:24;;;;;;;;;;;;;;;13.15;67.58;100710.75;1053346;28;752;-59
2022/01/03 01:30:14;;;;;;;;;;;;;;;13.15;66.99;100712.59;1053080;28;804;-59
2022/01/03 01:31:05;;;;;;;;;;;;;;;13.15;67.72;100712.59;1053764;28;846;-60
2022/01/03 01:31:55;;;;;;;;;;;;;;;13.15;67.39;100700.06;1054425;28;2013;-59
2022/01/03 01:32:45;;;;;;;;;;;;;;;13.15;67.38;100701.88;1055213;28;816;-59
2022/01/03 01:33:36;;;;;;;;;;;;;;;13.14;67.71;100710.84;1053420;28;748;-60
2022/01/03 01:34:27;;;;;;;;;;;;;;;13.15;66.76;100709.91;1056105;27;742;-59
2022/01/03 01:35:17;;;;;;;;;;;;;;;13.15;67.34;100699.22;1055120;28;765;-59
2022/01/03 01:36:07;;;;;;;;;;;;;;;13.14;66.95;100697.47;1053894;28;1366;-59
2022/01/03 01:36:58;;;;;;;;;;;;;;;13.14;67.17;100705.50;1055150;28;664;-60
2022/01/03 01:37:49;;;;;;;;;;;;;;;13.14;66.65;100702.81;1053953;28;773;-59
2022/01/03 01:38:39;;;;;;;;;;;;;;;13.14;67.46;100706.34;1054021;28;941;-59
2022/01/03 01:39:30;;;;;;;;;;;;;;;13.13;67.11;100709.13;1054683;28;644;-59
2022/01/03 01:40:20;;;;;;;;;;;;;;;13.13;67.03;100703.78;1053986;28;664;-59
2022/01/03 01:41:10;;;;;;;;;;;;;;;13.12;66.86;100718.13;1054590;28;672;-59
2022/01/03 01:42:01;;;;;;;;;;;;;;;13.12;67.42;100713.63;1055108;28;680;-59
2022/01/03 01:42:51;;;;;;;;;;;;;;;13.12;67.53;100702.09;1054501;28;919;-59
2022/01/03 01:43:42;;;;;;;;;;;;;;;13.13;67.53;100720.69;1053357;28;949;-59
2022/01/03 01:44:32;;;;;;;;;;;;;;;13.13;66.75;100715.34;1053611;28;780;-59
2022/01/03 01:45:22;;;;;;;;;;;;;;;13.12;67.09;100702.94;1053900;28;740;-59
2022/01/03 01:46:13;;;;;;;;;;;;;;;13.11;67.11;100705.72;1055060;28;616;-59
2022/01/03 01:47:04;;;;;;;;;;;;;;;13.12;67.13;100710.09;1053841;28;713;-59
2022/01/03 01:47:54;;;;;;;;;;;;;;;13.11;67.06;100706.56;1054472;28;1975;-59
2022/01/03 01:48:45;;;;;;;;;;;;;;;13.12;66.72;100710.09;1055147;28;705;-59
2022/01/03 01:49:35;;;;;;;;;;;;;;;13.11;66.72;100703.91;1054027;28;711;-60
2022/01/03 01:50:26;;;;;;;;;;;;;;;13.12;66.72;100702.09;1053838;28;1231;-60
2022/01/03 01:51:16;;;;;;;;;;;;;;;13.13;67.28;100709.13;1054459;28;914;-59
2022/01/03 01:52:06;;;;;;;;;;;;;;;13.12;67.01;100716.31;1054456;28;692;-59
2022/01/03 01:52:57;;;;;;;;;;;;;;;13.12;67.08;100702.94;1054636;28;778;-59
2022/01/03 01:53:48;;;;;;;;;;;;;;;13.13;66.98;100709.13;1054547;28;636;-59
2022/01/03 01:54:38;;;;;;;;;;;;;;;13.11;66.58;100706.56;1054423;28;635;-59
2022/01/03 01:55:29;;;;;;;;;;;;;;;13.12;66.90;100702.09;1054451;28;840;-59
2022/01/03 01:56:19;;;;;;;;;;;;;;;13.12;66.90;100715.47;1054560;28;770;-60
2022/01/03 01:57:09;;;;;;;;;;;;;;;13.12;66.94;100712.78;1054453;28;626;-59
2022/01/03 01:58:00;;;;;;;;;;;;;;;13.11;67.50;100711.06;1055148;28;790;-59
2022/01/03 01:58:50;;;;;;;;;;;;;;;13.11;67.23;100719.97;1049875;28;693;-59
2022/01/03 01:59:41;;;;;;;;;;;;;;;13.12;67.32;100707.44;1050609;28;858;-59
2022/01/03 02:00:31;;;;;;;;;;;;;;;13.12;66.85;100715.47;1054311;28;684;-59
2022/01/03 02:01:22;;;;;;;;;;;;;;;13.12;66.88;100712.78;1054584;28;637;-59
2022/01/03 02:02:12;;;;;;;;;;;;;;;13.13;66.46;100711.81;1055071;28;719;-59
2022/01/03 02:03:02;;;;;;;;;;;;;;;13.12;67.43;100715.47;1054466;28;621;-59
2022/01/03 02:03:53;;;;;;;;;;;;;;;13.12;67.18;100720.81;1052685;28;848;-59
2022/01/03 02:04:44;;;;;;;;;;;;;;;13.12;67.40;100710.97;1053544;28;664;-59
2022/01/03 02:05:34;;;;;;;;;;;;;;;13.12;67.35;100718.13;1053447;28;878;-60
2022/01/03 02:06:24;;;;;;;;;;;;;;;13.12;66.57;100723.47;1054396;28;893;-59
2022/01/03 02:07:15;;;;;;;;;;;;;;;13.11;66.65;100717.28;1051105;28;716;-59
2022/01/03 02:08:05;;;;;;;;;;;;;;;13.11;66.69;100716.44;1050934;28;1894;-60
2022/01/03 02:08:56;;;;;;;;;;;;;;;13.11;66.76;100727.97;1054393;28;672;-59
2022/01/03 02:09:46;;;;;;;;;;;;;;;13.10;67.47;100725.41;1054525;28;865;-59
2022/01/03 02:10:37;;;;;;;;;;;;;;;13.09;67.48;100708.53;1053184;28;647;-59
2022/01/03 02:11:27;;;;;;;;;;;;;;;13.08;66.64;100713.97;1054002;28;681;-59
2022/01/03 02:12:17;;;;;;;;;;;;;;;13.08;67.03;100722.00;1054328;28;970;-60
2022/01/03 02:13:08;;;;;;;;;;;;;;;13.09;66.84;100719.22;1054372;28;624;-59
2022/01/03 02:13:58;;;;;;;;;;;;;;;13.08;67.43;100722.00;1054370;28;832;-60
2022/01/03 02:14:51;;;;;;;;;;;;;;;13.09;67.10;100723.72;1054444;28;777;-59
2022/01/03 02:15:45;;;;;;;;;;;;;;;13.08;67.26;100728.22;1054977;28;623;-59
2022/01/03 02:16:36;;;;;;;;;;;;;;;13.08;67.01;100722.00;1053731;28;780;-59
2022/01/03 02:17:26;;;;;;;;;;;;;;;13.07;67.49;100731.88;1056274;27;717;-59
2022/01/03 02:18:17;;;;;;;;;;;;;;;13.08;67.22;100736.25;1054510;28;702;-59
2022/01/03 02:19:07;;;;;;;;;;;;;;;13.10;66.65;100720.06;1053307;28;625;-59
2022/01/03 02:19:58;;;;;;;;;;;;;;;13.08;66.86;100722.00;1053209;28;555;-60
2022/01/03 02:20:48;;;;;;;;;;;;;;;13.07;66.70;100726.53;1053359;28;674;-60
2022/01/03 02:21:38;;;;;;;;;;;;;;;13.08;67.17;100730.88;1054354;28;699;-59
2022/01/03 02:22:29;;;;;;;;;;;;;;;13.07;66.44;100736.38;1054169;28;730;-59
2022/01/03 02:23:19;;;;;;;;;;;;;;;13.07;66.39;100728.38;1054878;28;641;-60
2022/01/03 02:24:10;;;;;;;;;;;;;;;13.08;66.88;100725.53;1054938;28;692;-59
2022/01/03 02:25:00;;;;;;;;;;;;;;;13.08;67.27;100732.72;1054923;28;787;-59
2022/01/03 02:25:51;;;;;;;;;;;;;;;13.06;66.68;100724.84;1054367;28;629;-59
2022/01/03 02:26:41;;;;;;;;;;;;;;;13.08;66.47;100728.22;1054441;28;930;-59
2022/01/03 02:27:32;;;;;;;;;;;;;;;13.08;66.37;100730.03;1054470;28;688;-59
2022/01/03 02:28:22;;;;;;;;;;;;;;;13.07;67.19;100726.53;1053694;28;702;-59
2022/01/03 02:29:13;;;;;;;;;;;;;;;13.07;66.89;100731.03;1054410;28;696;-59
2022/01/03 02:30:03;;;;;;;;;;;;;;;13.08;66.51;100730.03;1053888;28;666;-59
2022/01/03 02:30:54;;;;;;;;;;;;;;;13.07;66.85;100728.38;1054270;28;764;-59
2022/01/03 02:31:44;;;;;;;;;;;;;;;13.08;67.11;100735.38;1054425;28;649;-60
2022/01/03 02:32:34;;;;;;;;;;;;;;;13.08;66.81;100738.06;1054284;28;850;-59
2022/01/03 02:33:25;;;;;;;;;;;;;;;13.07;66.91;100736.38;1053913;28;743;-59
2022/01/03 02:34:15;;;;;;;;;;;;;;;13.05;67.19;100733.81;1054368;28;710;-59
2022/01/03 02:35:06;;;;;;;;;;;;;;;13.04;66.83;100726.78;1054205;28;751;-60
2022/01/03 02:35:56;;;;;;;;;;;;;;;13.04;66.63;100736.63;1054383;28;684;-59
2022/01/03 02:36:47;;;;;;;;;;;;;;;13.06;66.49;100745.38;1054294;28;652;-59
2022/01/03 02:37:37;;;;;;;;;;;;;;;13.05;66.85;100738.31;1054888;28;696;-59
2022/01/03 02:38:28;;;;;;;;;;;;;;;13.05;67.37;100733.81;1054390;28;610;-60
2022/01/03 02:39:18;;;;;;;;;;;;;;;13.05;67.04;100739.19;1053785;28;835;-59
2022/01/03 02:40:11;;;;;;;;;;;;;;;13.05;67.00;100743.69;1054312;28;630;-60
2022/01/03 02:41:01;;;;;;;;;;;;;;;13.05;67.19;100743.69;1056554;27;1581;-59
2022/01/03 02:41:51;;;;;;;;;;;;;;;13.06;66.34;100734.69;1062092;27;641;-59
2022/01/03 02:42:42;;;;;;;;;;;;;;;13.06;67.10;100740.03;1057657;28;661;-59
2022/01/03 02:43:32;;;;;;;;;;;;;;;13.04;67.29;100726.78;1058680;27;880;-60
2022/01/03 02:44:23;;;;;;;;;;;;;;;13.04;67.06;100733.94;1062892;27;605;-59
2022/01/03 02:45:13;;;;;;;;;;;;;;;13.04;67.12;100733.94;1062270;27;708;-60
2022/01/03 02:46:04;;;;;;;;;;;;;;;13.04;66.85;100726.78;1062117;27;672;-60
2022/01/03 02:46:54;;;;;;;;;;;;;;;13.05;67.21;100727.63;1062112;27;1461;-60
2022/01/03 02:47:45;;;;;;;;;;;;;;;13.06;67.04;100726.66;1062611;27;847;-60
2022/01/03 02:48:35;;;;;;;;;;;;;;;13.05;66.74;100725.81;1062111;27;692;-59
2022/01/03 02:49:26;;;;;;;;;;;;;;;13.06;66.39;100723.97;1062067;27;818;-60
2022/01/03 02:50:16;;;;;;;;;;;;;;;13.05;66.32;100725.81;1062155;27;1298;-60
2022/01/03 02:51:07;;;;;;;;;;;;;;;13.05;67.18;100720.44;1062125;27;691;-60
2022/01/03 02:51:57;;;;;;;;;;;;;;;13.06;66.53;100723.97;1062070;27;798;-60
2022/01/03 02:52:48;;;;;;;;;;;;;;;13.05;66.55;100719.59;1062598;27;703;-60
2022/01/03 02:53:38;;;;;;;;;;;;;;;13.04;67.15;100721.41;1062090;27;880;-60
2022/01/03 02:54:28;;;;;;;;;;;;;;;13.05;67.06;100724.94;1062827;27;973;-59
2022/01/03 02:55:19;;;;;;;;;;;;;;;13.04;67.29;100721.41;1062120;27;696;-59
2022/01/03 02:56:09;;;;;;;;;;;;;;;13.04;67.03;100726.78;1062053;27;878;-60
2022/01/03 02:57:00;;;;;;;;;;;;;;;13.04;67.17;100728.59;1062047;27;625;-59
2022/01/03 02:57:50;;;;;;;;;;;;;;;13.04;66.45;100717.88;1062080;27;832;-60
2022/01/03 02:58:41;;;;;;;;;;;;;;;13.04;66.53;100720.56;1063456;27;696;-60
2022/01/03 02:59:31;;;;;;;;;;;;;;;13.05;66.98;100724.94;1062123;27;771;-59
2022/01/03 03:00:21;;;;;;;;;;;;;;;13.04;66.63;100728.59;1063466;27;709;-60
2022/01/03 03:01:12;;;;;;;;;;;;;;;13.03;66.82;100716.19;1062123;27;653;-60
2022/01/03 03:02:02;;;;;;;;;;;;;;;13.03;66.59;100721.53;1062105;27;772;-61
2022/01/03 03:02:53;;;;;;;;;;;;;;;13.03;66.52;100718.88;1063281;27;1067;-60
2022/01/03 03:03:43;;;;;;;;;;;;;;;13.02;67.20;100712.66;1063191;27;746;-60
2022/01/03 03:04:34;;;;;;;;;;;;;;;13.04;67.12;100720.56;1063379;27;750;-61
2022/01/03 03:05:24;;;;;;;;;;;;;;;13.04;66.48;100715.22;1062100;27;629;-60
2022/01/03 03:06:14;;;;;;;;;;;;;;;13.04;67.18;100721.41;1062078;27;989;-60
2022/01/03 03:07:05;;;;;;;;;;;;;;;13.04;66.63;100728.59;1062214;27;632;-60
2022/01/03 03:07:55;;;;;;;;;;;;;;;13.04;67.04;100720.56;1061985;27;1963;-60
2022/01/03 03:08:46;;;;;;;;;;;;;;;13.04;66.66;100717.88;1061941;27;657;-60
2022/01/03 03:09:37;;;;;;;;;;;;;;;13.03;66.38;100724.22;1061497;27;664;-60
2022/01/03 03:10:27;;;;;;;;;;;;;;;13.02;66.38;100717.16;1063163;27;706;-60
2022/01/03 03:11:18;;;;;;;;;;;;;;;13.02;66.55;100719.84;1062615;27;636;-60
2022/01/03 03:12:08;;;;;;;;;;;;;;;13.02;66.57;100717.16;1063324;27;620;-60
2022/01/03 03:12:58;;;;;;;;;;;;;;;13.02;67.38;100725.19;1062079;27;684;-60
2022/01/03 03:13:49;;;;;;;;;;;;;;;13.02;66.58;100711.81;1062001;27;700;-59
2022/01/03 03:14:39;;;;;;;;;;;;;;;13.03;67.18;100721.53;1062166;27;799;-60
2022/01/03 03:15:30;;;;;;;;;;;;;;;13.02;66.51;100719.84;1063367;27;711;-60
2022/01/03 03:16:20;;;;;;;;;;;;;;;13.01;66.51;100724.31;1062161;27;648;-59
2022/01/03 03:17:10;;;;;;;;;;;;;;;13.02;66.67;100725.19;1062189;27;776;-60
2022/01/03 03:18:01;;;;;;;;;;;;;;;13.01;67.22;100710.09;1061986;27;683;-60
2022/01/03 03:18:51;;;;;;;;;;;;;;;13.00;67.44;100724.44;1061991;27;723;-60
2022/01/03 03:19:42;;;;;;;;;;;;;;;12.98;67.51;100705.84;1062002;27;695;-60
2022/01/03 03:20:32;;;;;;;;;;;;;;;12.97;66.50;100714.81;1062194;27;711;-60
2022/01/03 03:21:23;;;;;;;;;;;;;;;12.98;66.84;100716.53;1059044;27;1806;-60
2022/01/03 03:22:13;;;;;;;;;;;;;;;12.98;66.71;100721.88;1057336;28;719;-60
2022/01/03 03:23:03;;;;;;;;;;;;;;;12.97;66.82;100719.31;1057286;28;760;-60
2022/01/03 03:23:54;;;;;;;;;;;;;;;12.97;67.51;100713.97;1057668;28;629;-60
2022/01/03 03:24:44;;;;;;;;;;;;;;;12.97;67.24;100716.66;1057892;28;649;-60
2022/01/03 03:25:35;;;;;;;;;;;;;;;12.97;66.83;100720.19;1057760;28;1086;-60
2022/01/03 03:26:25;;;;;;;;;;;;;;;12.99;66.44;100723.59;1057306;28;688;-60
2022/01/03 03:27:16;;;;;;;;;;;;;;;12.98;66.65;100721.88;1057652;28;903;-60
2022/01/03 03:28:06;;;;;;;;;;;;;;;12.99;67.11;100722.72;1057772;28;1967;-60
2022/01/03 03:28:57;;;;;;;;;;;;;;;13.00;67.08;100721.75;1057080;28;673;-59
2022/01/03 03:29:47;;;;;;;;;;;;;;;12.99;66.58;100710.22;1057778;28;661;-60
2022/01/03 03:30:38;;;;;;;;;;;;;;;12.99;67.07;100722.72;1057764;28;669;-59
2022/01/03 03:31:28;;;;;;;;;;;;;;;13.00;66.54;100719.09;1057765;28;734;-60
2022/01/03 03:32:18;;;;;;;;;;;;;;;12.99;66.39;100706.69;1057762;28;682;-60
2022/01/03 03:33:09;;;;;;;;;;;;;;;12.99;66.31;100712.88;1057239;28;676;-60
2022/01/03 03:33:59;;;;;;;;;;;;;;;12.99;67.34;100717.38;1056844;28;636;-60
2022/01/03 03:34:50;;;;;;;;;;;;;;;13.01;67.11;100726.16;1057684;28;680;-60
2022/01/03 03:35:40;;;;;;;;;;;;;;;13.00;67.29;100727.13;1057695;28;861;-60
2022/01/03 03:36:31;;;;;;;;;;;;;;;13.00;67.05;100729.78;1056924;28;993;-60
2022/01/03 03:37:21;;;;;;;;;;;;;;;12.98;66.81;100724.56;1057726;28;670;-60
2022/01/03 03:38:11;;;;;;;;;;;;;;;12.99;67.25;100728.09;1057636;28;637;-60
2022/01/03 03:39:02;;;;;;;;;;;;;;;12.99;67.13;100725.41;1057678;28;648;-60
2022/01/03 03:39:52;;;;;;;;;;;;;;;12.96;67.17;100721.16;1057799;28;922;-60
2022/01/03 03:40:45;;;;;;;;;;;;;;;12.96;67.26;100717.63;1057749;28;617;-60
2022/01/03 03:41:36;;;;;;;;;;;;;;;12.96;66.59;100720.28;1052488;28;870;-60
2022/01/03 03:42:26;;;;;;;;;;;;;;;12.97;66.86;100724.66;1053882;28;669;-60
2022/01/03 03:43:17;;;;;;;;;;;;;;;12.96;66.76;100720.28;1058254;28;707;-60
2022/01/03 03:44:07;;;;;;;;;;;;;;;12.96;66.98;100733.66;1057689;28;696;-60
2022/01/03 03:44:57;;;;;;;;;;;;;;;12.97;66.45;100724.66;1057749;28;683;-59
2022/01/03 03:45:51;;;;;;;;;;;;;;;12.95;66.39;100724.78;1057579;28;746;-60
2022/01/03 03:46:41;;;;;;;;;;;;;;;12.95;66.90;100731.97;1057588;28;1215;-60
2022/01/03 03:47:31;;;;;;;;;;;;;;;12.95;67.28;100724.78;1057932;28;633;-60
2022/01/03 03:48:22;;;;;;;;;;;;;;;12.94;66.40;100728.44;1057576;28;1921;-60
2022/01/03 03:49:12;;;;;;;;;;;;;;;12.95;67.34;100732.81;1057876;28;633;-59
2022/01/03 03:50:03;;;;;;;;;;;;;;;12.95;66.62;100726.59;1057575;28;765;-60
2022/01/03 03:50:53;;;;;;;;;;;;;;;12.96;66.94;100731.00;1057691;28;621;-59
2022/01/03 03:51:43;;;;;;;;;;;;;;;12.95;66.97;100721.25;1052753;28;740;-60
2022/01/03 03:52:34;;;;;;;;;;;;;;;12.95;66.63;100722.13;1053736;28;809;-60
2022/01/03 03:53:26;;;;;;;;;;;;;;;12.94;66.89;100725.75;1058190;28;641;-60
2022/01/03 03:54:16;;;;;;;;;;;;;;;12.95;67.44;100723.94;1057082;28;937;-60
2022/01/03 03:55:06;;;;;;;;;;;;;;;12.94;66.92;100732.94;1057853;28;701;-59
2022/01/03 03:55:57;;;;;;;;;;;;;;;12.93;67.02;100720.53;1057620;28;711;-60
2022/01/03 03:56:47;;;;;;;;;;;;;;;12.94;66.74;100724.91;1057720;28;696;-60
2022/01/03 03:57:38;;;;;;;;;;;;;;;12.93;67.09;100718.69;1057737;28;613;-60
2022/01/03 03:58:28;;;;;;;;;;;;;;;12.93;67.37;100721.38;1057687;28;1018;-59
2022/01/03 03:59:19;;;;;;;;;;;;;;;12.93;66.84;100723.19;1057681;28;641;-60
2022/01/03 04:00:09;;;;;;;;;;;;;;;12.93;66.89;100720.53;1057638;28;760;-60
2022/01/03 04:00:59;;;;;;;;;;;;;;;12.94;66.53;100719.56;1057686;28;711;-60
2022/01/03 04:01:50;;;;;;;;;;;;;;;12.93;67.01;100728.53;1057615;28;613;-60
2022/01/03 04:02:41;;;;;;;;;;;;;;;12.93;66.34;100725.88;1056806;28;763;-59
2022/01/03 04:03:31;;;;;;;;;;;;;;;12.92;66.45;100721.50;1057646;28;677;-60
2022/01/03 04:04:21;;;;;;;;;;;;;;;12.92;67.08;100734.84;1057754;28;697;-59
2022/01/03 04:05:12;;;;;;;;;;;;;;;12.91;66.52;100725.97;1057667;28;688;-60
2022/01/03 04:06:02;;;;;;;;;;;;;;;12.92;66.94;100724.16;1057760;28;648;-60
2022/01/03 04:06:53;;;;;;;;;;;;;;;12.92;66.86;100729.50;1057503;28;933;-60
2022/01/03 04:07:43;;;;;;;;;;;;;;;12.92;67.30;100730.38;1057631;28;789;-60
2022/01/03 04:08:33;;;;;;;;;;;;;;;12.91;66.38;100727.81;1057743;28;665;-60
2022/01/03 04:09:24;;;;;;;;;;;;;;;12.92;66.93;100721.50;1057661;28;671;-60
2022/01/03 04:10:15;;;;;;;;;;;;;;;12.92;66.68;100722.34;1057774;28;669;-60
2022/01/03 04:11:06;;;;;;;;;;;;;;;12.90;67.11;100718.09;1056856;28;907;-60
2022/01/03 04:11:56;;;;;;;;;;;;;;;12.91;67.24;100727.81;1057574;28;794;-59
2022/01/03 04:12:47;;;;;;;;;;;;;;;12.92;66.79;100721.50;1057582;28;704;-60
2022/01/03 04:13:37;;;;;;;;;;;;;;;12.90;67.33;100716.25;1057716;28;686;-60
2022/01/03 04:14:28;;;;;;;;;;;;;;;12.92;67.18;100718.81;1057761;28;754;-60
2022/01/03 04:15:18;;;;;;;;;;;;;;;12.91;67.41;100714.44;1057576;28;844;-60
2022/01/03 04:16:09;;;;;;;;;;;;;;;12.91;66.36;100722.47;1057768;28;692;-60
2022/01/03 04:16:59;;;;;;;;;;;;;;;12.91;67.19;100709.09;1057621;28;719;-60
2022/01/03 04:17:49;;;;;;;;;;;;;;;12.91;66.81;100711.75;1057694;28;641;-59
2022/01/03 04:18:40;;;;;;;;;;;;;;;12.93;67.19;100712.50;1057648;28;689;-58
2022/01/03 04:19:30;;;;;;;;;;;;;;;12.93;66.45;100707.16;1057682;28;937;-58
2022/01/03 04:20:21;;;;;;;;;;;;;;;12.93;66.52;100712.50;1057586;28;680;-58
2022/01/03 04:21:11;;;;;;;;;;;;;;;12.95;67.32;100713.22;1057653;28;1375;-59
2022/01/03 04:22:02;;;;;;;;;;;;;;;12.94;66.35;100708.84;1057616;28;688;-58
2022/01/03 04:22:52;;;;;;;;;;;;;;;12.95;66.30;100705.22;1057520;28;750;-58
2022/01/03 04:23:42;;;;;;;;;;;;;;;12.95;67.02;100710.56;1057524;28;886;-58
2022/01/03 04:24:33;;;;;;;;;;;;;;;12.94;66.99;100712.38;1057578;28;631;-58
2022/01/03 04:25:23;;;;;;;;;;;;;;;12.94;66.47;100700.84;1057654;28;771;-59
2022/01/03 04:26:14;;;;;;;;;;;;;;;12.94;66.73;100698.16;1057623;28;741;-58
2022/01/03 04:27:04;;;;;;;;;;;;;;;12.94;66.36;100704.34;1057738;28;688;-58
2022/01/03 04:27:54;;;;;;;;;;;;;;;12.94;67.19;100708.84;1057000;28;912;-58
2022/01/03 04:28:45;;;;;;;;;;;;;;;12.93;66.78;100705.31;1057494;28;665;-58